sensor_id;sensor_type;location;lat;lon;timestamp;P1;durP1;ratioP1;P2;durP2;ratioP2
14373;SDS011;7270;49.004;12.066;2022-10-16T00:01:53;0.90;;;0.90;;
14373;SDS011;7270;49.004;12.066;2022-10-16T00:04:19;0.90;;;0.90;;
14373;SDS011;7270;49.004;12.066;2022-10-16T00:06:45;0.87;;;0.87;;
14373;SDS011;7270;49.004;12.066;2022-10-16T00:09:12;0.90;;;0.90;;
14373;SDS011;7270;49.004;12.066;2022-10-16T00:11:39;0.90;;;0.90;;
14373;SDS011;7270;49.004;12.066;2022-10-16T00:14:06;0.90;;;0.90;;
14373;SDS011;7270;49.004;12.066;2022-10-16T00:16:34;0.80;;;0.80;;
14373;SDS011;7270;49.004;12.066;2022-10-16T00:19:01;0.70;;;0.70;;
14373;SDS011;7270;49.004;12.066;2022-10-16T00:21:27;0.70;;;0.70;;
14373;SDS011;7270;49.004;12.066;2022-10-16T00:23:55;0.87;;;0.87;;
14373;SDS011;7270;49.004;12.066;2022-10-16T00:26:21;0.90;;;0.90;;
14373;SDS011;7270;49.004;12.066;2022-10-16T00:28:48;1.00;;;1.00;;
14373;SDS011;7270;49.004;12.066;2022-10-16T00:31:15;0.87;;;0.87;;
14373;SDS011;7270;49.004;12.066;2022-10-16T00:33:43;0.90;;;0.90;;
14373;SDS011;7270;49.004;12.066;2022-10-16T00:36:10;1.00;;;1.00;;
14373;SDS011;7270;49.004;12.066;2022-10-16T00:38:37;0.90;;;0.90;;
14373;SDS011;7270;49.004;12.066;2022-10-16T00:41:03;0.90;;;0.90;;
14373;SDS011;7270;49.004;12.066;2022-10-16T00:43:37;0.90;;;0.90;;
14373;SDS011;7270;49.004;12.066;2022-10-16T00:46:05;0.90;;;0.90;;
14373;SDS011;7270;49.004;12.066;2022-10-16T00:48:31;0.90;;;0.90;;
14373;SDS011;7270;49.004;12.066;2022-10-16T00:50:59;0.80;;;0.80;;
14373;SDS011;7270;49.004;12.066;2022-10-16T00:53:25;0.80;;;0.80;;
14373;SDS011;7270;49.004;12.066;2022-10-16T00:55:53;1.00;;;1.00;;
14373;SDS011;7270;49.004;12.066;2022-10-16T00:58:19;0.90;;;0.90;;
14373;SDS011;7270;49.004;12.066;2022-10-16T01:00:46;0.90;;;0.90;;
14373;SDS011;7270;49.004;12.066;2022-10-16T01:03:23;0.90;;;0.90;;
14373;SDS011;7270;49.004;12.066;2022-10-16T01:05:51;0.90;;;0.90;;
14373;SDS011;7270;49.004;12.066;2022-10-16T01:08:21;0.90;;;0.90;;
14373;SDS011;7270;49.004;12.066;2022-10-16T01:10:54;0.80;;;0.80;;
14373;SDS011;7270;49.004;12.066;2022-10-16T01:13:24;0.90;;;0.90;;
14373;SDS011;7270;49.004;12.066;2022-10-16T01:15:53;0.90;;;0.90;;
14373;SDS011;7270;49.004;12.066;2022-10-16T01:18:21;1.00;;;1.00;;
14373;SDS011;7270;49.004;12.066;2022-10-16T01:20:50;0.90;;;0.90;;
14373;SDS011;7270;49.004;12.066;2022-10-16T01:23:26;1.00;;;1.00;;
14373;SDS011;7270;49.004;12.066;2022-10-16T01:26:01;0.90;;;0.90;;
14373;SDS011;7270;49.004;12.066;2022-10-16T01:28:34;0.70;;;0.70;;
14373;SDS011;7270;49.004;12.066;2022-10-16T01:31:02;0.80;;;0.80;;
14373;SDS011;7270;49.004;12.066;2022-10-16T01:33:30;0.83;;;0.83;;
14373;SDS011;7270;49.004;12.066;2022-10-16T01:36:02;0.90;;;0.90;;
14373;SDS011;7270;49.004;12.066;2022-10-16T01:38:29;0.90;;;0.90;;
14373;SDS011;7270;49.004;12.066;2022-10-16T01:40:58;0.80;;;0.80;;
14373;SDS011;7270;49.004;12.066;2022-10-16T01:43:26;0.90;;;0.90;;
14373;SDS011;7270;49.004;12.066;2022-10-16T01:45:56;0.93;;;0.93;;
14373;SDS011;7270;49.004;12.066;2022-10-16T01:48:23;0.90;;;0.90;;
14373;SDS011;7270;49.004;12.066;2022-10-16T01:50:52;0.80;;;0.80;;
14373;SDS011;7270;49.004;12.066;2022-10-16T01:53:20;0.90;;;0.90;;
14373;SDS011;7270;49.004;12.066;2022-10-16T01:55:46;0.93;;;0.93;;
14373;SDS011;7270;49.004;12.066;2022-10-16T01:58:14;0.90;;;0.90;;
14373;SDS011;7270;49.004;12.066;2022-10-16T02:00:42;1.00;;;1.00;;
14373;SDS011;7270;49.004;12.066;2022-10-16T02:03:10;0.90;;;0.90;;
14373;SDS011;7270;49.004;12.066;2022-10-16T02:05:39;1.00;;;1.00;;
14373;SDS011;7270;49.004;12.066;2022-10-16T02:08:07;0.90;;;0.90;;
14373;SDS011;7270;49.004;12.066;2022-10-16T02:10:34;0.80;;;0.80;;
14373;SDS011;7270;49.004;12.066;2022-10-16T02:13:04;0.80;;;0.80;;
14373;SDS011;7270;49.004;12.066;2022-10-16T02:15:31;0.90;;;0.90;;
14373;SDS011;7270;49.004;12.066;2022-10-16T02:17:58;0.80;;;0.80;;
14373;SDS011;7270;49.004;12.066;2022-10-16T02:20:27;0.80;;;0.80;;
14373;SDS011;7270;49.004;12.066;2022-10-16T02:22:54;0.80;;;0.80;;
14373;SDS011;7270;49.004;12.066;2022-10-16T02:25:22;1.00;;;1.00;;
14373;SDS011;7270;49.004;12.066;2022-10-16T02:27:50;0.90;;;0.90;;
14373;SDS011;7270;49.004;12.066;2022-10-16T02:30:20;0.90;;;0.90;;
14373;SDS011;7270;49.004;12.066;2022-10-16T02:32:48;0.90;;;0.90;;
14373;SDS011;7270;49.004;12.066;2022-10-16T02:35:15;0.90;;;0.90;;
14373;SDS011;7270;49.004;12.066;2022-10-16T02:37:43;0.80;;;0.80;;
14373;SDS011;7270;49.004;12.066;2022-10-16T02:40:10;0.93;;;0.93;;
14373;SDS011;7270;49.004;12.066;2022-10-16T02:42:37;0.90;;;0.90;;
14373;SDS011;7270;49.004;12.066;2022-10-16T02:45:05;0.90;;;0.90;;
14373;SDS011;7270;49.004;12.066;2022-10-16T02:47:31;0.90;;;0.90;;
14373;SDS011;7270;49.004;12.066;2022-10-16T02:49:58;0.80;;;0.80;;
14373;SDS011;7270;49.004;12.066;2022-10-16T02:52:24;0.90;;;0.90;;
14373;SDS011;7270;49.004;12.066;2022-10-16T02:54:52;0.90;;;0.90;;
14373;SDS011;7270;49.004;12.066;2022-10-16T02:57:19;0.93;;;0.93;;
14373;SDS011;7270;49.004;12.066;2022-10-16T02:59:45;0.90;;;0.90;;
14373;SDS011;7270;49.004;12.066;2022-10-16T03:02:11;0.70;;;0.70;;
14373;SDS011;7270;49.004;12.066;2022-10-16T03:04:38;0.80;;;0.80;;
14373;SDS011;7270;49.004;12.066;2022-10-16T03:07:04;0.90;;;0.90;;
14373;SDS011;7270;49.004;12.066;2022-10-16T03:09:30;0.83;;;0.83;;
14373;SDS011;7270;49.004;12.066;2022-10-16T03:11:58;0.80;;;0.80;;
14373;SDS011;7270;49.004;12.066;2022-10-16T03:14:24;0.90;;;0.90;;
14373;SDS011;7270;49.004;12.066;2022-10-16T03:16:51;0.80;;;0.80;;
14373;SDS011;7270;49.004;12.066;2022-10-16T03:19:17;0.80;;;0.80;;
14373;SDS011;7270;49.004;12.066;2022-10-16T03:21:43;0.90;;;0.90;;
14373;SDS011;7270;49.004;12.066;2022-10-16T03:24:10;1.00;;;1.00;;
14373;SDS011;7270;49.004;12.066;2022-10-16T03:26:36;0.93;;;0.93;;
14373;SDS011;7270;49.004;12.066;2022-10-16T03:29:04;1.00;;;1.00;;
14373;SDS011;7270;49.004;12.066;2022-10-16T03:31:31;0.90;;;0.90;;
14373;SDS011;7270;49.004;12.066;2022-10-16T03:33:57;0.93;;;0.93;;
14373;SDS011;7270;49.004;12.066;2022-10-16T03:36:24;0.90;;;0.90;;
14373;SDS011;7270;49.004;12.066;2022-10-16T03:38:50;0.87;;;0.87;;
14373;SDS011;7270;49.004;12.066;2022-10-16T03:41:16;0.70;;;0.70;;
14373;SDS011;7270;49.004;12.066;2022-10-16T03:43:43;0.80;;;0.80;;
14373;SDS011;7270;49.004;12.066;2022-10-16T03:46:11;0.97;;;0.97;;
14373;SDS011;7270;49.004;12.066;2022-10-16T03:48:37;0.70;;;0.70;;
14373;SDS011;7270;49.004;12.066;2022-10-16T03:51:05;0.90;;;0.90;;
14373;SDS011;7270;49.004;12.066;2022-10-16T03:53:31;0.80;;;0.80;;
14373;SDS011;7270;49.004;12.066;2022-10-16T03:55:57;0.90;;;0.90;;
14373;SDS011;7270;49.004;12.066;2022-10-16T03:58:24;0.97;;;0.97;;
14373;SDS011;7270;49.004;12.066;2022-10-16T04:00:50;0.90;;;0.90;;
14373;SDS011;7270;49.004;12.066;2022-10-16T04:03:23;0.80;;;0.80;;
14373;SDS011;7270;49.004;12.066;2022-10-16T04:05:52;0.90;;;0.90;;
14373;SDS011;7270;49.004;12.066;2022-10-16T04:08:18;0.90;;;0.90;;
14373;SDS011;7270;49.004;12.066;2022-10-16T04:10:44;0.83;;;0.83;;
14373;SDS011;7270;49.004;12.066;2022-10-16T04:13:11;0.83;;;0.83;;
14373;SDS011;7270;49.004;12.066;2022-10-16T04:15:37;0.90;;;0.90;;
14373;SDS011;7270;49.004;12.066;2022-10-16T04:18:04;1.00;;;1.00;;
14373;SDS011;7270;49.004;12.066;2022-10-16T04:20:32;0.80;;;0.80;;
14373;SDS011;7270;49.004;12.066;2022-10-16T04:22:58;0.70;;;0.70;;
14373;SDS011;7270;49.004;12.066;2022-10-16T04:25:25;0.90;;;0.90;;
14373;SDS011;7270;49.004;12.066;2022-10-16T04:27:52;0.70;;;0.70;;
14373;SDS011;7270;49.004;12.066;2022-10-16T04:30:18;0.90;;;0.90;;
14373;SDS011;7270;49.004;12.066;2022-10-16T04:32:47;0.80;;;0.80;;
14373;SDS011;7270;49.004;12.066;2022-10-16T04:35:14;0.90;;;0.90;;
14373;SDS011;7270;49.004;12.066;2022-10-16T04:37:41;0.93;;;0.93;;
14373;SDS011;7270;49.004;12.066;2022-10-16T04:40:08;0.80;;;0.80;;
14373;SDS011;7270;49.004;12.066;2022-10-16T04:42:34;0.90;;;0.90;;
14373;SDS011;7270;49.004;12.066;2022-10-16T04:45:01;0.70;;;0.70;;
14373;SDS011;7270;49.004;12.066;2022-10-16T04:47:27;0.80;;;0.80;;
14373;SDS011;7270;49.004;12.066;2022-10-16T04:49:53;0.90;;;0.90;;
14373;SDS011;7270;49.004;12.066;2022-10-16T04:52:20;0.80;;;0.80;;
14373;SDS011;7270;49.004;12.066;2022-10-16T04:54:50;0.90;;;0.90;;
14373;SDS011;7270;49.004;12.066;2022-10-16T04:57:17;0.80;;;0.80;;
14373;SDS011;7270;49.004;12.066;2022-10-16T04:59:43;0.80;;;0.80;;
14373;SDS011;7270;49.004;12.066;2022-10-16T05:02:09;0.90;;;0.90;;
14373;SDS011;7270;49.004;12.066;2022-10-16T05:04:36;0.90;;;0.90;;
14373;SDS011;7270;49.004;12.066;2022-10-16T05:07:02;0.80;;;0.80;;
14373;SDS011;7270;49.004;12.066;2022-10-16T05:09:28;0.80;;;0.80;;
14373;SDS011;7270;49.004;12.066;2022-10-16T05:11:56;0.70;;;0.70;;
14373;SDS011;7270;49.004;12.066;2022-10-16T05:14:22;0.70;;;0.70;;
14373;SDS011;7270;49.004;12.066;2022-10-16T05:16:49;1.00;;;1.00;;
14373;SDS011;7270;49.004;12.066;2022-10-16T05:19:15;0.90;;;0.90;;
14373;SDS011;7270;49.004;12.066;2022-10-16T05:21:42;0.80;;;0.80;;
14373;SDS011;7270;49.004;12.066;2022-10-16T05:24:08;0.83;;;0.83;;
14373;SDS011;7270;49.004;12.066;2022-10-16T05:26:35;1.00;;;1.00;;
14373;SDS011;7270;49.004;12.066;2022-10-16T05:29:02;0.93;;;0.93;;
14373;SDS011;7270;49.004;12.066;2022-10-16T05:31:29;0.80;;;0.80;;
14373;SDS011;7270;49.004;12.066;2022-10-16T05:33:57;0.80;;;0.80;;
14373;SDS011;7270;49.004;12.066;2022-10-16T05:36:24;0.87;;;0.87;;
14373;SDS011;7270;49.004;12.066;2022-10-16T05:38:50;0.83;;;0.83;;
14373;SDS011;7270;49.004;12.066;2022-10-16T05:41:16;0.90;;;0.90;;
14373;SDS011;7270;49.004;12.066;2022-10-16T05:43:46;0.87;;;0.87;;
14373;SDS011;7270;49.004;12.066;2022-10-16T05:46:14;0.80;;;0.80;;
14373;SDS011;7270;49.004;12.066;2022-10-16T05:48:41;0.90;;;0.90;;
14373;SDS011;7270;49.004;12.066;2022-10-16T05:51:08;0.80;;;0.80;;
14373;SDS011;7270;49.004;12.066;2022-10-16T05:53:35;0.90;;;0.90;;
14373;SDS011;7270;49.004;12.066;2022-10-16T05:56:02;0.80;;;0.80;;
14373;SDS011;7270;49.004;12.066;2022-10-16T05:58:29;0.90;;;0.90;;
14373;SDS011;7270;49.004;12.066;2022-10-16T06:00:56;0.80;;;0.80;;
14373;SDS011;7270;49.004;12.066;2022-10-16T06:03:24;0.90;;;0.90;;
14373;SDS011;7270;49.004;12.066;2022-10-16T06:05:51;0.80;;;0.80;;
14373;SDS011;7270;49.004;12.066;2022-10-16T06:08:17;0.80;;;0.80;;
14373;SDS011;7270;49.004;12.066;2022-10-16T06:10:44;0.90;;;0.90;;
14373;SDS011;7270;49.004;12.066;2022-10-16T06:13:11;0.90;;;0.90;;
14373;SDS011;7270;49.004;12.066;2022-10-16T06:15:37;0.93;;;0.93;;
14373;SDS011;7270;49.004;12.066;2022-10-16T06:18:04;0.80;;;0.80;;
14373;SDS011;7270;49.004;12.066;2022-10-16T06:20:32;0.80;;;0.80;;
14373;SDS011;7270;49.004;12.066;2022-10-16T06:22:58;0.90;;;0.90;;
14373;SDS011;7270;49.004;12.066;2022-10-16T06:25:24;1.00;;;1.00;;
14373;SDS011;7270;49.004;12.066;2022-10-16T06:27:51;0.87;;;0.87;;
14373;SDS011;7270;49.004;12.066;2022-10-16T06:30:17;0.90;;;0.90;;
14373;SDS011;7270;49.004;12.066;2022-10-16T06:32:43;0.90;;;0.90;;
14373;SDS011;7270;49.004;12.066;2022-10-16T06:35:10;0.80;;;0.80;;
14373;SDS011;7270;49.004;12.066;2022-10-16T06:37:37;0.90;;;0.90;;
14373;SDS011;7270;49.004;12.066;2022-10-16T06:40:05;0.90;;;0.90;;
14373;SDS011;7270;49.004;12.066;2022-10-16T06:42:32;0.90;;;0.90;;
14373;SDS011;7270;49.004;12.066;2022-10-16T06:44:58;0.90;;;0.90;;
14373;SDS011;7270;49.004;12.066;2022-10-16T06:47:24;0.90;;;0.90;;
14373;SDS011;7270;49.004;12.066;2022-10-16T06:49:51;0.90;;;0.90;;
14373;SDS011;7270;49.004;12.066;2022-10-16T06:52:17;0.97;;;0.97;;
14373;SDS011;7270;49.004;12.066;2022-10-16T06:54:45;0.90;;;0.90;;
14373;SDS011;7270;49.004;12.066;2022-10-16T06:57:11;0.90;;;0.90;;
14373;SDS011;7270;49.004;12.066;2022-10-16T06:59:37;0.90;;;0.90;;
14373;SDS011;7270;49.004;12.066;2022-10-16T07:02:04;0.90;;;0.90;;
14373;SDS011;7270;49.004;12.066;2022-10-16T07:04:32;0.90;;;0.90;;
14373;SDS011;7270;49.004;12.066;2022-10-16T07:06:59;0.80;;;0.80;;
14373;SDS011;7270;49.004;12.066;2022-10-16T07:09:26;0.90;;;0.90;;
14373;SDS011;7270;49.004;12.066;2022-10-16T07:11:54;0.90;;;0.90;;
14373;SDS011;7270;49.004;12.066;2022-10-16T07:14:20;0.90;;;0.90;;
14373;SDS011;7270;49.004;12.066;2022-10-16T07:16:47;0.80;;;0.80;;
14373;SDS011;7270;49.004;12.066;2022-10-16T07:19:14;0.80;;;0.80;;
14373;SDS011;7270;49.004;12.066;2022-10-16T07:21:42;0.90;;;0.90;;
14373;SDS011;7270;49.004;12.066;2022-10-16T07:24:10;0.80;;;0.80;;
14373;SDS011;7270;49.004;12.066;2022-10-16T07:26:37;1.00;;;1.00;;
14373;SDS011;7270;49.004;12.066;2022-10-16T07:29:06;0.90;;;0.90;;
14373;SDS011;7270;49.004;12.066;2022-10-16T07:31:32;0.80;;;0.80;;
14373;SDS011;7270;49.004;12.066;2022-10-16T07:33:59;0.80;;;0.80;;
14373;SDS011;7270;49.004;12.066;2022-10-16T07:36:26;0.80;;;0.80;;
14373;SDS011;7270;49.004;12.066;2022-10-16T07:38:52;0.90;;;0.90;;
14373;SDS011;7270;49.004;12.066;2022-10-16T07:41:19;0.90;;;0.90;;
14373;SDS011;7270;49.004;12.066;2022-10-16T07:43:46;0.80;;;0.80;;
14373;SDS011;7270;49.004;12.066;2022-10-16T07:46:13;0.90;;;0.90;;
14373;SDS011;7270;49.004;12.066;2022-10-16T07:48:41;0.80;;;0.80;;
14373;SDS011;7270;49.004;12.066;2022-10-16T07:51:10;0.90;;;0.90;;
14373;SDS011;7270;49.004;12.066;2022-10-16T07:53:37;0.90;;;0.90;;
14373;SDS011;7270;49.004;12.066;2022-10-16T07:56:04;0.90;;;0.90;;
14373;SDS011;7270;49.004;12.066;2022-10-16T07:58:32;0.83;;;0.83;;
14373;SDS011;7270;49.004;12.066;2022-10-16T08:00:58;0.80;;;0.80;;
14373;SDS011;7270;49.004;12.066;2022-10-16T08:03:26;1.00;;;1.00;;
14373;SDS011;7270;49.004;12.066;2022-10-16T08:05:52;1.00;;;1.00;;
14373;SDS011;7270;49.004;12.066;2022-10-16T08:08:18;0.90;;;0.90;;
14373;SDS011;7270;49.004;12.066;2022-10-16T08:10:45;0.90;;;0.90;;
14373;SDS011;7270;49.004;12.066;2022-10-16T08:13:11;0.90;;;0.90;;
14373;SDS011;7270;49.004;12.066;2022-10-16T08:15:39;0.90;;;0.90;;
14373;SDS011;7270;49.004;12.066;2022-10-16T08:18:06;1.00;;;1.00;;
14373;SDS011;7270;49.004;12.066;2022-10-16T08:20:33;1.00;;;1.00;;
14373;SDS011;7270;49.004;12.066;2022-10-16T08:23:00;0.90;;;0.90;;
14373;SDS011;7270;49.004;12.066;2022-10-16T08:25:26;1.00;;;1.00;;
14373;SDS011;7270;49.004;12.066;2022-10-16T08:27:53;1.00;;;1.00;;
14373;SDS011;7270;49.004;12.066;2022-10-16T08:30:21;0.90;;;0.90;;
14373;SDS011;7270;49.004;12.066;2022-10-16T08:32:47;1.00;;;1.00;;
14373;SDS011;7270;49.004;12.066;2022-10-16T08:35:21;1.10;;;1.10;;
14373;SDS011;7270;49.004;12.066;2022-10-16T08:37:49;1.00;;;1.00;;
14373;SDS011;7270;49.004;12.066;2022-10-16T08:40:16;1.07;;;1.07;;
14373;SDS011;7270;49.004;12.066;2022-10-16T08:42:47;1.10;;;1.10;;
14373;SDS011;7270;49.004;12.066;2022-10-16T08:45:27;1.10;;;1.10;;
14373;SDS011;7270;49.004;12.066;2022-10-16T08:48:00;1.10;;;1.10;;
14373;SDS011;7270;49.004;12.066;2022-10-16T08:50:31;1.10;;;1.10;;
14373;SDS011;7270;49.004;12.066;2022-10-16T08:53:03;1.00;;;1.00;;
14373;SDS011;7270;49.004;12.066;2022-10-16T08:55:33;1.00;;;1.00;;
14373;SDS011;7270;49.004;12.066;2022-10-16T08:58:05;1.00;;;1.00;;
14373;SDS011;7270;49.004;12.066;2022-10-16T09:00:36;1.10;;;1.10;;
14373;SDS011;7270;49.004;12.066;2022-10-16T09:03:04;1.10;;;1.10;;
14373;SDS011;7270;49.004;12.066;2022-10-16T09:05:38;1.10;;;1.10;;
14373;SDS011;7270;49.004;12.066;2022-10-16T09:08:14;1.13;;;1.13;;
14373;SDS011;7270;49.004;12.066;2022-10-16T09:10:45;1.10;;;1.10;;
14373;SDS011;7270;49.004;12.066;2022-10-16T09:13:18;1.40;;;1.30;;
14373;SDS011;7270;49.004;12.066;2022-10-16T09:15:47;1.50;;;1.40;;
14373;SDS011;7270;49.004;12.066;2022-10-16T09:18:17;1.40;;;1.30;;
14373;SDS011;7270;49.004;12.066;2022-10-16T09:20:49;1.40;;;1.30;;
14373;SDS011;7270;49.004;12.066;2022-10-16T09:23:17;1.50;;;1.40;;
14373;SDS011;7270;49.004;12.066;2022-10-16T09:25:47;1.60;;;1.50;;
14373;SDS011;7270;49.004;12.066;2022-10-16T09:28:14;1.50;;;1.40;;
14373;SDS011;7270;49.004;12.066;2022-10-16T09:30:41;1.70;;;1.60;;
14373;SDS011;7270;49.004;12.066;2022-10-16T09:33:07;1.57;;;1.47;;
14373;SDS011;7270;49.004;12.066;2022-10-16T09:35:36;1.70;;;1.60;;
14373;SDS011;7270;49.004;12.066;2022-10-16T09:38:03;1.70;;;1.60;;
14373;SDS011;7270;49.004;12.066;2022-10-16T09:40:33;1.50;;;1.40;;
14373;SDS011;7270;49.004;12.066;2022-10-16T09:43:07;1.50;;;1.40;;
14373;SDS011;7270;49.004;12.066;2022-10-16T09:45:38;1.50;;;1.40;;
14373;SDS011;7270;49.004;12.066;2022-10-16T09:48:10;1.60;;;1.50;;
14373;SDS011;7270;49.004;12.066;2022-10-16T09:50:37;1.53;;;1.43;;
14373;SDS011;7270;49.004;12.066;2022-10-16T09:53:04;1.60;;;1.50;;
14373;SDS011;7270;49.004;12.066;2022-10-16T09:55:32;1.60;;;1.50;;
14373;SDS011;7270;49.004;12.066;2022-10-16T09:57:58;1.50;;;1.40;;
14373;SDS011;7270;49.004;12.066;2022-10-16T10:00:25;1.70;;;1.60;;
14373;SDS011;7270;49.004;12.066;2022-10-16T10:02:51;1.60;;;1.50;;
14373;SDS011;7270;49.004;12.066;2022-10-16T10:05:19;1.70;;;1.60;;
14373;SDS011;7270;49.004;12.066;2022-10-16T10:07:52;1.70;;;1.60;;
14373;SDS011;7270;49.004;12.066;2022-10-16T10:10:20;1.70;;;1.60;;
14373;SDS011;7270;49.004;12.066;2022-10-16T10:12:57;1.70;;;1.60;;
14373;SDS011;7270;49.004;12.066;2022-10-16T10:15:23;1.80;;;1.70;;
14373;SDS011;7270;49.004;12.066;2022-10-16T10:17:52;1.80;;;1.70;;
14373;SDS011;7270;49.004;12.066;2022-10-16T10:20:23;1.77;;;1.67;;
14373;SDS011;7270;49.004;12.066;2022-10-16T10:22:49;1.70;;;1.60;;
14373;SDS011;7270;49.004;12.066;2022-10-16T10:25:19;1.70;;;1.60;;
14373;SDS011;7270;49.004;12.066;2022-10-16T10:27:52;1.70;;;1.60;;
14373;SDS011;7270;49.004;12.066;2022-10-16T10:30:24;1.80;;;1.70;;
14373;SDS011;7270;49.004;12.066;2022-10-16T10:32:54;1.80;;;1.70;;
14373;SDS011;7270;49.004;12.066;2022-10-16T10:35:24;1.80;;;1.70;;
14373;SDS011;7270;49.004;12.066;2022-10-16T10:37:59;1.80;;;1.70;;
14373;SDS011;7270;49.004;12.066;2022-10-16T10:40:30;1.75;;;1.65;;
14373;SDS011;7270;49.004;12.066;2022-10-16T10:43:02;1.90;;;1.80;;
14373;SDS011;7270;49.004;12.066;2022-10-16T10:45:36;1.70;;;1.60;;
14373;SDS011;7270;49.004;12.066;2022-10-16T10:48:13;1.60;;;1.50;;
14373;SDS011;7270;49.004;12.066;2022-10-16T10:50:44;1.50;;;1.40;;
14373;SDS011;7270;49.004;12.066;2022-10-16T10:53:18;1.50;;;1.40;;
14373;SDS011;7270;49.004;12.066;2022-10-16T10:55:47;1.40;;;1.30;;
14373;SDS011;7270;49.004;12.066;2022-10-16T10:58:27;1.50;;;1.40;;
14373;SDS011;7270;49.004;12.066;2022-10-16T11:01:01;1.43;;;1.33;;
14373;SDS011;7270;49.004;12.066;2022-10-16T11:03:35;1.27;;;1.20;;
14373;SDS011;7270;49.004;12.066;2022-10-16T11:06:05;1.40;;;1.30;;
14373;SDS011;7270;49.004;12.066;2022-10-16T11:08:34;1.40;;;1.30;;
14373;SDS011;7270;49.004;12.066;2022-10-16T11:11:02;1.30;;;1.20;;
14373;SDS011;7270;49.004;12.066;2022-10-16T11:13:31;1.10;;;1.10;;
14373;SDS011;7270;49.004;12.066;2022-10-16T11:16:00;1.30;;;1.20;;
14373;SDS011;7270;49.004;12.066;2022-10-16T11:18:30;1.40;;;1.30;;
14373;SDS011;7270;49.004;12.066;2022-10-16T11:21:00;1.30;;;1.20;;
14373;SDS011;7270;49.004;12.066;2022-10-16T11:23:29;1.40;;;1.30;;
14373;SDS011;7270;49.004;12.066;2022-10-16T11:25:59;1.40;;;1.30;;
14373;SDS011;7270;49.004;12.066;2022-10-16T11:28:27;1.30;;;1.20;;
14373;SDS011;7270;49.004;12.066;2022-10-16T11:30:57;1.43;;;1.33;;
14373;SDS011;7270;49.004;12.066;2022-10-16T11:33:28;1.40;;;1.30;;
14373;SDS011;7270;49.004;12.066;2022-10-16T11:35:59;1.17;;;1.17;;
14373;SDS011;7270;49.004;12.066;2022-10-16T11:38:27;1.30;;;1.20;;
14373;SDS011;7270;49.004;12.066;2022-10-16T11:40:56;1.40;;;1.30;;
14373;SDS011;7270;49.004;12.066;2022-10-16T11:43:26;1.20;;;1.20;;
14373;SDS011;7270;49.004;12.066;2022-10-16T11:45:55;1.20;;;1.20;;
14373;SDS011;7270;49.004;12.066;2022-10-16T11:48:26;1.30;;;1.20;;
14373;SDS011;7270;49.004;12.066;2022-10-16T11:50:56;1.40;;;1.30;;
14373;SDS011;7270;49.004;12.066;2022-10-16T11:53:24;1.13;;;1.13;;
14373;SDS011;7270;49.004;12.066;2022-10-16T11:55:56;1.30;;;1.20;;
14373;SDS011;7270;49.004;12.066;2022-10-16T11:58:24;1.30;;;1.20;;
14373;SDS011;7270;49.004;12.066;2022-10-16T12:00:54;1.23;;;1.20;;
14373;SDS011;7270;49.004;12.066;2022-10-16T12:03:22;1.20;;;1.17;;
14373;SDS011;7270;49.004;12.066;2022-10-16T12:05:58;1.30;;;1.20;;
14373;SDS011;7270;49.004;12.066;2022-10-16T12:08:26;1.33;;;1.30;;
14373;SDS011;7270;49.004;12.066;2022-10-16T12:10:53;1.27;;;1.20;;
14373;SDS011;7270;49.004;12.066;2022-10-16T12:13:32;1.27;;;1.20;;
14373;SDS011;7270;49.004;12.066;2022-10-16T12:16:06;1.23;;;1.20;;
14373;SDS011;7270;49.004;12.066;2022-10-16T12:18:33;1.30;;;1.20;;
14373;SDS011;7270;49.004;12.066;2022-10-16T12:21:01;1.30;;;1.20;;
14373;SDS011;7270;49.004;12.066;2022-10-16T12:23:31;1.40;;;1.30;;
14373;SDS011;7270;49.004;12.066;2022-10-16T12:25:58;1.20;;;1.20;;
14373;SDS011;7270;49.004;12.066;2022-10-16T12:28:26;1.17;;;1.17;;
14373;SDS011;7270;49.004;12.066;2022-10-16T12:30:54;1.10;;;1.10;;
14373;SDS011;7270;49.004;12.066;2022-10-16T12:33:21;1.30;;;1.20;;
14373;SDS011;7270;49.004;12.066;2022-10-16T12:35:48;1.10;;;1.10;;
14373;SDS011;7270;49.004;12.066;2022-10-16T12:38:17;1.30;;;1.20;;
14373;SDS011;7270;49.004;12.066;2022-10-16T12:40:44;1.10;;;1.10;;
14373;SDS011;7270;49.004;12.066;2022-10-16T12:43:24;1.10;;;1.10;;
14373;SDS011;7270;49.004;12.066;2022-10-16T12:45:58;1.10;;;1.10;;
14373;SDS011;7270;49.004;12.066;2022-10-16T12:48:24;1.10;;;1.10;;
14373;SDS011;7270;49.004;12.066;2022-10-16T12:50:51;1.10;;;1.10;;
14373;SDS011;7270;49.004;12.066;2022-10-16T12:53:19;1.10;;;1.10;;
14373;SDS011;7270;49.004;12.066;2022-10-16T12:55:51;1.10;;;1.10;;
14373;SDS011;7270;49.004;12.066;2022-10-16T12:58:25;1.00;;;1.00;;
14373;SDS011;7270;49.004;12.066;2022-10-16T13:00:55;1.10;;;1.10;;
14373;SDS011;7270;49.004;12.066;2022-10-16T13:03:36;1.10;;;1.10;;
14373;SDS011;7270;49.004;12.066;2022-10-16T13:06:10;1.00;;;1.00;;
14373;SDS011;7270;49.004;12.066;2022-10-16T13:08:45;1.10;;;1.10;;
14373;SDS011;7270;49.004;12.066;2022-10-16T13:11:17;1.10;;;1.10;;
14373;SDS011;7270;49.004;12.066;2022-10-16T13:13:56;1.10;;;1.10;;
14373;SDS011;7270;49.004;12.066;2022-10-16T13:16:29;1.10;;;1.10;;
14373;SDS011;7270;49.004;12.066;2022-10-16T13:19:01;1.10;;;1.10;;
14373;SDS011;7270;49.004;12.066;2022-10-16T13:21:34;1.07;;;1.07;;
14373;SDS011;7270;49.004;12.066;2022-10-16T13:24:07;1.10;;;1.10;;
14373;SDS011;7270;49.004;12.066;2022-10-16T13:26:38;1.00;;;1.00;;
14373;SDS011;7270;49.004;12.066;2022-10-16T13:29:07;1.00;;;1.00;;
14373;SDS011;7270;49.004;12.066;2022-10-16T13:31:36;1.10;;;1.10;;
14373;SDS011;7270;49.004;12.066;2022-10-16T13:34:03;1.10;;;1.10;;
14373;SDS011;7270;49.004;12.066;2022-10-16T13:36:34;1.00;;;1.00;;
14373;SDS011;7270;49.004;12.066;2022-10-16T13:39:07;1.00;;;1.00;;
14373;SDS011;7270;49.004;12.066;2022-10-16T13:41:36;1.00;;;1.00;;
14373;SDS011;7270;49.004;12.066;2022-10-16T13:44:03;1.10;;;1.10;;
14373;SDS011;7270;49.004;12.066;2022-10-16T13:46:30;0.93;;;0.93;;
14373;SDS011;7270;49.004;12.066;2022-10-16T13:49:03;1.00;;;1.00;;
14373;SDS011;7270;49.004;12.066;2022-10-16T13:51:30;1.00;;;1.00;;
14373;SDS011;7270;49.004;12.066;2022-10-16T13:53:58;1.00;;;1.00;;
14373;SDS011;7270;49.004;12.066;2022-10-16T13:56:28;0.93;;;0.93;;
14373;SDS011;7270;49.004;12.066;2022-10-16T13:58:58;0.90;;;0.90;;
14373;SDS011;7270;49.004;12.066;2022-10-16T14:01:25;1.00;;;1.00;;
14373;SDS011;7270;49.004;12.066;2022-10-16T14:03:53;1.00;;;1.00;;
14373;SDS011;7270;49.004;12.066;2022-10-16T14:06:20;1.00;;;1.00;;
14373;SDS011;7270;49.004;12.066;2022-10-16T14:08:48;0.90;;;0.90;;
14373;SDS011;7270;49.004;12.066;2022-10-16T14:11:20;1.00;;;1.00;;
14373;SDS011;7270;49.004;12.066;2022-10-16T14:13:48;0.90;;;0.90;;
14373;SDS011;7270;49.004;12.066;2022-10-16T14:16:16;1.00;;;1.00;;
14373;SDS011;7270;49.004;12.066;2022-10-16T14:18:44;1.00;;;1.00;;
14373;SDS011;7270;49.004;12.066;2022-10-16T14:21:12;1.03;;;1.03;;
14373;SDS011;7270;49.004;12.066;2022-10-16T14:23:38;1.00;;;1.00;;
14373;SDS011;7270;49.004;12.066;2022-10-16T14:26:06;1.00;;;1.00;;
14373;SDS011;7270;49.004;12.066;2022-10-16T14:28:39;0.90;;;0.90;;
14373;SDS011;7270;49.004;12.066;2022-10-16T14:31:19;0.93;;;0.93;;
14373;SDS011;7270;49.004;12.066;2022-10-16T14:33:49;0.80;;;0.80;;
14373;SDS011;7270;49.004;12.066;2022-10-16T14:36:16;1.00;;;1.00;;
14373;SDS011;7270;49.004;12.066;2022-10-16T14:38:48;0.93;;;0.93;;
14373;SDS011;7270;49.004;12.066;2022-10-16T14:41:15;0.90;;;0.90;;
14373;SDS011;7270;49.004;12.066;2022-10-16T14:43:41;0.90;;;0.90;;
14373;SDS011;7270;49.004;12.066;2022-10-16T14:46:11;0.90;;;0.90;;
14373;SDS011;7270;49.004;12.066;2022-10-16T14:48:41;0.80;;;0.80;;
14373;SDS011;7270;49.004;12.066;2022-10-16T14:51:08;0.90;;;0.90;;
14373;SDS011;7270;49.004;12.066;2022-10-16T14:53:37;0.90;;;0.90;;
14373;SDS011;7270;49.004;12.066;2022-10-16T14:56:05;0.83;;;0.83;;